createdAt,value
2019-02-07T00:01:34.422Z,81.67
2019-02-07T00:03:43.938Z,81.73
2019-02-07T00:05:53.342Z,81.48
2019-02-07T00:08:00.528Z,81.58
2019-02-07T00:10:17.506Z,81.55
2019-02-07T00:12:26.018Z,81.64
2019-02-07T00:14:39.779Z,81.55
2019-02-07T00:16:48.636Z,81.31
2019-02-07T00:18:55.645Z,81.56
2019-02-07T00:21:04.146Z,81.53
2019-02-07T00:23:12.493Z,81.02
2019-02-07T00:25:19.547Z,81.28
2019-02-07T00:27:28.137Z,81.52
2019-02-07T00:29:41.449Z,81.30
2019-02-07T00:31:49.725Z,81.73
2019-02-07T00:33:59.755Z,81.26
2019-02-07T00:36:08.106Z,80.90
2019-02-07T00:38:18.597Z,81.24
2019-02-07T00:40:28.048Z,81.35
2019-02-07T00:42:37.979Z,81.52
2019-02-07T00:44:51.054Z,81.32
2019-02-07T00:46:55.110Z,81.24
2019-02-07T00:49:01.560Z,81.42
2019-02-07T00:51:08.497Z,81.17
2019-02-07T00:53:18.572Z,81.53
2019-02-07T00:55:27.016Z,81.11
2019-02-07T00:57:36.067Z,81.08
2019-02-07T00:59:43.657Z,80.83
2019-02-07T01:01:53.876Z,80.87
2019-02-07T01:04:01.046Z,81.43
2019-02-07T01:06:11.366Z,81.44
2019-02-07T01:08:20.062Z,81.32
2019-02-07T01:10:32.265Z,81.59
2019-02-07T01:12:40.582Z,81.90
2019-02-07T01:14:47.660Z,81.58
2019-02-07T01:16:54.631Z,81.95
2019-02-07T01:19:01.464Z,81.83
2019-02-07T01:21:10.655Z,81.92
2019-02-07T01:23:17.775Z,81.54
2019-02-07T01:25:26.216Z,81.64
2019-02-07T01:27:35.919Z,81.81
2019-02-07T01:29:44.509Z,81.79
2019-02-07T01:31:52.559Z,81.91
2019-02-07T01:34:02.634Z,81.72
2019-02-07T01:36:10.720Z,81.59
2019-02-07T01:38:17.598Z,81.78
2019-02-07T01:40:24.946Z,81.84
2019-02-07T01:42:32.107Z,81.95
2019-02-07T01:44:46.130Z,82.01
2019-02-07T01:46:54.241Z,82.16
2019-02-07T01:49:05.541Z,82.25
2019-02-07T01:51:16.956Z,82.28
2019-02-07T01:53:24.043Z,82.42
2019-02-07T01:55:34.204Z,82.59
2019-02-07T01:57:40.883Z,82.75
2019-02-07T01:59:51.034Z,82.82
2019-02-07T02:01:59.109Z,82.94
2019-02-07T02:04:08.364Z,82.95
2019-02-07T02:06:16.033Z,83.12
2019-02-07T02:08:25.904Z,83.28
2019-02-07T02:10:33.351Z,83.12
2019-02-07T02:12:40.583Z,82.85
2019-02-07T02:14:47.604Z,83.03
2019-02-07T02:16:57.205Z,82.82
2019-02-07T02:19:09.855Z,82.25
2019-02-07T02:21:20.825Z,82.16
2019-02-07T02:23:29.002Z,82.01
2019-02-07T02:25:37.774Z,81.79
2019-02-07T02:27:45.760Z,81.97
2019-02-07T02:29:54.369Z,82.04
2019-02-07T02:32:01.274Z,81.82
2019-02-07T02:34:08.662Z,82.04
2019-02-07T02:36:17.893Z,81.63
2019-02-07T02:38:26.756Z,82.08
2019-02-07T02:40:33.556Z,82.47
2019-02-07T02:42:40.186Z,81.75
2019-02-07T02:44:47.519Z,81.36
2019-02-07T02:46:54.678Z,81.46
2019-02-07T02:49:01.644Z,81.65
2019-02-07T02:51:10.218Z,81.63
2019-02-07T02:53:17.239Z,82.09
2019-02-07T02:55:40.614Z,80.99
2019-02-07T02:57:49.646Z,80.99
2019-02-07T03:02:28.854Z,81.25
2019-02-07T03:04:43.333Z,81.00
2019-02-07T03:07:11.673Z,80.88
2019-02-07T03:09:38.452Z,80.30
2019-02-07T03:12:03.623Z,80.52
2019-02-07T03:14:18.145Z,79.97
2019-02-07T03:16:26.433Z,80.26
2019-02-07T03:18:45.484Z,80.77
2019-02-07T03:20:52.386Z,80.75
2019-02-07T03:23:04.266Z,80.29
2019-02-07T03:25:27.570Z,80.16
2019-02-07T03:27:40.188Z,80.35
2019-02-07T03:30:06.090Z,80.25
2019-02-07T03:32:31.410Z,80.35
2019-02-07T03:34:40.219Z,80.08
2019-02-07T03:36:49.927Z,79.77
2019-02-07T03:39:10.710Z,79.94
2019-02-07T03:41:35.051Z,79.35
2019-02-07T03:43:52.268Z,79.60
2019-02-07T03:46:10.807Z,79.76
2019-02-07T03:48:25.228Z,80.28
2019-02-07T03:50:35.117Z,80.17
2019-02-07T03:53:02.062Z,80.39
2019-02-07T03:55:27.062Z,80.28
2019-02-07T03:57:51.381Z,80.75
2019-02-07T04:00:01.499Z,80.87
2019-02-07T04:02:08.247Z,81.31
2019-02-07T04:04:32.541Z,81.42
2019-02-07T04:06:42.497Z,81.62
2019-02-07T04:08:54.389Z,81.88
2019-02-07T04:11:02.638Z,81.89
2019-02-07T04:13:12.480Z,81.96
2019-02-07T04:15:37.138Z,81.97
2019-02-07T04:18:01.503Z,82.14
2019-02-07T04:20:15.514Z,82.31
2019-02-07T04:22:34.504Z,82.43
2019-02-07T04:24:55.096Z,82.50
2019-02-07T04:27:23.065Z,82.63
2019-02-07T04:29:31.290Z,82.87
2019-02-07T04:31:44.388Z,82.97
2019-02-07T04:34:05.100Z,83.08
2019-02-07T04:36:19.568Z,83.21
2019-02-07T04:38:29.211Z,83.42
2019-02-07T04:40:46.720Z,83.68
2019-02-07T04:43:01.075Z,83.85
2019-02-07T04:45:16.744Z,84.02
2019-02-07T04:47:29.564Z,84.13
2019-02-07T04:49:54.319Z,84.24
2019-02-07T04:52:05.731Z,84.35
2019-02-07T04:54:19.111Z,84.45
2019-02-07T04:56:31.681Z,84.63
2019-02-07T04:58:37.983Z,84.76
2019-02-07T05:00:51.032Z,84.82
2019-02-07T05:02:59.512Z,84.84
2019-02-07T05:05:10.530Z,84.89
2019-02-07T05:07:22.838Z,84.95
2019-02-07T05:09:48.129Z,84.98
2019-02-07T05:11:59.608Z,85.05
2019-02-07T05:14:17.198Z,85.23
2019-02-07T05:16:39.556Z,85.26
2019-02-07T05:19:03.566Z,85.28
2019-02-07T05:21:16.692Z,85.29
2019-02-07T05:23:33.104Z,85.39
2019-02-07T05:25:56.653Z,85.47
2019-02-07T05:28:04.705Z,85.59
2019-02-07T05:30:27.187Z,85.60
2019-02-07T05:32:51.887Z,85.64
2019-02-07T05:35:01.576Z,85.78
2019-02-07T05:37:18.200Z,85.82
2019-02-07T05:39:43.139Z,85.84
2019-02-07T05:41:49.813Z,85.66
2019-02-07T05:44:15.719Z,85.73
2019-02-07T05:46:22.212Z,85.83
2019-02-07T05:48:31.751Z,85.75
2019-02-07T05:50:38.373Z,85.72
2019-02-07T05:52:44.963Z,85.68
2019-02-07T05:55:05.642Z,85.72
2019-02-07T05:57:16.661Z,85.76
2019-02-07T05:59:36.104Z,85.77
2019-02-07T06:02:02.630Z,85.75
2019-02-07T06:04:14.175Z,85.73
2019-02-07T06:06:39.267Z,85.69
2019-02-07T06:08:50.488Z,85.75
2019-02-07T06:11:14.977Z,85.70
2019-02-07T06:13:35.275Z,85.70
2019-02-07T06:15:47.268Z,85.66
2019-02-07T06:18:11.758Z,85.70
2019-02-07T06:20:35.517Z,85.65
2019-02-07T06:22:54.589Z,85.64
2019-02-07T06:25:02.879Z,85.51
2019-02-07T06:27:29.524Z,85.42
2019-02-07T06:29:41.254Z,85.42
2019-02-07T06:31:54.653Z,86.16
2019-02-07T06:34:28.560Z,89.89
2019-02-07T06:36:38.953Z,87.66
2019-02-07T06:38:49.109Z,84.31
2019-02-07T06:41:02.422Z,84.86
2019-02-07T06:43:27.084Z,84.15
2019-02-07T06:45:53.408Z,84.25
2019-02-07T06:48:15.036Z,84.14
2019-02-07T06:50:26.148Z,84.06
2019-02-07T06:52:46.889Z,83.68
2019-02-07T06:54:57.913Z,83.69
2019-02-07T06:57:11.090Z,83.53
2019-02-07T06:59:31.690Z,83.35
2019-02-07T07:01:46.182Z,83.10
2019-02-07T07:03:54.600Z,82.79
2019-02-07T07:06:04.822Z,82.46
2019-02-07T07:08:12.763Z,82.71
2019-02-07T07:10:29.645Z,82.46
2019-02-07T07:12:38.122Z,82.34
2019-02-07T07:15:02.733Z,82.30
2019-02-07T07:17:27.572Z,81.86
2019-02-07T07:19:36.182Z,81.69
2019-02-07T07:21:44.958Z,81.49
2019-02-07T07:24:08.255Z,81.25
2019-02-07T07:26:18.663Z,81.18
2019-02-07T07:28:28.230Z,80.49
2019-02-07T07:30:42.668Z,80.70
2019-02-07T07:32:53.838Z,80.51
2019-02-07T07:35:04.120Z,80.40
2019-02-07T07:37:28.952Z,80.34
2019-02-07T07:39:38.975Z,80.19
2019-02-07T07:42:02.439Z,79.87
2019-02-07T07:44:28.844Z,79.56
2019-02-07T07:46:43.264Z,79.95
2019-02-07T07:48:57.872Z,79.90
2019-02-07T07:51:12.382Z,79.33
2019-02-07T07:53:20.892Z,79.01
2019-02-07T07:55:29.324Z,78.99
2019-02-07T07:57:46.357Z,78.72
2019-02-07T07:59:57.709Z,79.17
2019-02-07T08:02:06.526Z,78.57
2019-02-07T08:04:13.066Z,79.26
2019-02-07T08:06:29.059Z,78.77
2019-02-07T08:08:49.352Z,79.05
2019-02-07T08:10:59.198Z,78.54
2019-02-07T08:13:20.978Z,78.61
2019-02-07T08:15:38.355Z,78.35
2019-02-07T08:17:51.678Z,78.23
2019-02-07T08:20:04.400Z,78.45
2019-02-07T08:22:15.765Z,78.65
2019-02-07T08:24:41.898Z,78.43
2019-02-07T08:27:04.147Z,77.72
2019-02-07T08:29:13.405Z,77.73
2019-02-07T08:31:28.133Z,77.75
2019-02-07T08:33:51.326Z,77.08
2019-02-07T08:36:14.742Z,76.63
2019-02-07T08:38:30.612Z,76.68
2019-02-07T08:40:45.192Z,76.52
2019-02-07T08:43:09.042Z,75.67
2019-02-07T08:45:28.841Z,76.37
2019-02-07T08:47:43.014Z,75.70
2019-02-07T08:49:52.520Z,76.15
2019-02-07T08:52:11.672Z,75.33
2019-02-07T08:54:33.412Z,75.17
2019-02-07T08:56:44.728Z,75.14
2019-02-07T08:58:59.013Z,74.75
2019-02-07T09:01:11.519Z,74.81
2019-02-07T09:03:30.598Z,73.91
2019-02-07T09:05:42.104Z,73.96
2019-02-07T09:07:56.633Z,74.54
2019-02-07T09:10:12.619Z,73.59
2019-02-07T09:12:37.051Z,73.95
2019-02-07T09:14:54.388Z,73.88
2019-02-07T09:17:02.735Z,73.63
2019-02-07T09:19:17.203Z,73.12
2019-02-07T09:21:41.760Z,71.86
2019-02-07T09:23:48.551Z,72.26
2019-02-07T09:26:13.231Z,71.31
2019-02-07T09:28:24.868Z,71.97
2019-02-07T09:30:49.510Z,71.16
2019-02-07T09:32:55.869Z,71.54
2019-02-07T09:35:10.131Z,70.61
2019-02-07T09:37:35.269Z,71.43
2019-02-07T09:39:43.881Z,70.66
2019-02-07T09:42:10.721Z,70.51
2019-02-07T09:44:28.082Z,69.60
2019-02-07T09:46:54.801Z,70.05
2019-02-07T09:49:03.451Z,69.85
2019-02-07T09:51:13.491Z,69.62
2019-02-07T09:53:29.603Z,69.80
2019-02-07T09:55:43.611Z,69.20
2019-02-07T09:58:06.592Z,69.25
2019-02-07T10:00:27.991Z,67.94
2019-02-07T10:02:54.839Z,69.04
2019-02-07T10:05:13.882Z,67.79
2019-02-07T10:07:30.343Z,68.53
2019-02-07T10:09:39.108Z,67.63
2019-02-07T10:12:04.241Z,67.83
2019-02-07T10:14:21.751Z,66.98
2019-02-07T10:16:30.301Z,66.50
2019-02-07T10:18:39.231Z,66.30
2019-02-07T10:20:54.051Z,66.48
2019-02-07T10:23:13.119Z,65.76
2019-02-07T10:25:27.813Z,65.47
2019-02-07T10:27:37.756Z,66.26
2019-02-07T10:30:02.451Z,66.18
2019-02-07T10:32:11.889Z,66.52
2019-02-07T10:34:20.181Z,65.94
2019-02-07T10:36:45.813Z,66.46
2019-02-07T10:39:00.660Z,66.09
2019-02-07T10:41:20.755Z,66.55
2019-02-07T10:43:29.522Z,65.93
2019-02-07T10:45:39.718Z,65.72
2019-02-07T10:48:02.178Z,64.45
2019-02-07T10:50:17.961Z,65.05
2019-02-07T10:52:31.965Z,65.33
2019-02-07T10:54:47.481Z,64.36
2019-02-07T10:57:00.335Z,64.02
2019-02-07T10:59:14.833Z,63.79
2019-02-07T11:01:36.097Z,63.76
2019-02-07T11:03:56.604Z,64.15
2019-02-07T11:06:05.130Z,63.89
2019-02-07T11:08:24.177Z,62.90
2019-02-07T11:10:50.983Z,62.77
2019-02-07T11:13:11.142Z,62.74
2019-02-07T11:15:28.541Z,60.94
2019-02-07T11:17:53.121Z,60.92
2019-02-07T11:20:06.372Z,61.90
2019-02-07T11:22:22.953Z,61.31
2019-02-07T11:24:35.053Z,60.31
2019-02-07T11:27:01.882Z,60.66
2019-02-07T11:29:10.388Z,60.47
2019-02-07T11:31:24.578Z,60.32
2019-02-07T11:33:32.968Z,59.91
2019-02-07T11:35:47.562Z,59.72
2019-02-07T11:38:10.997Z,59.73
2019-02-07T11:40:41.229Z,60.09
2019-02-07T11:42:53.850Z,59.64
2019-02-07T11:45:11.450Z,58.87
2019-02-07T11:47:21.472Z,60.01
2019-02-07T11:49:29.981Z,59.79
2019-02-07T11:51:54.482Z,60.23
2019-02-07T11:54:21.521Z,59.95
2019-02-07T11:56:31.081Z,59.72
2019-02-07T11:58:43.611Z,60.10
2019-02-07T12:01:06.721Z,60.51
2019-02-07T12:03:13.381Z,61.52
2019-02-07T12:05:20.169Z,61.38
2019-02-07T12:07:34.307Z,61.01
2019-02-07T12:09:58.041Z,61.32
2019-02-07T12:12:22.882Z,60.59
2019-02-07T12:14:38.039Z,61.31
2019-02-07T12:17:06.101Z,61.01
2019-02-07T12:22:01.949Z,61.23
2019-02-07T12:24:14.491Z,61.86
2019-02-07T12:26:39.498Z,61.14
2019-02-07T12:28:46.322Z,61.12
2019-02-07T12:31:05.811Z,61.22
2019-02-07T12:33:18.813Z,61.06
2019-02-07T12:35:28.544Z,61.33
2019-02-07T12:37:41.374Z,60.74
2019-02-07T12:40:07.982Z,62.17
2019-02-07T12:42:16.378Z,61.97
2019-02-07T12:44:30.606Z,60.96
2019-02-07T12:46:58.235Z,60.98
2019-02-07T12:49:08.482Z,60.86
2019-02-07T12:51:22.931Z,60.54
2019-02-07T12:53:31.946Z,61.08
2019-02-07T12:55:56.060Z,60.28
2019-02-07T12:58:21.571Z,60.36
2019-02-07T13:00:36.481Z,60.21
2019-02-07T13:02:59.041Z,60.79
2019-02-07T13:05:31.371Z,60.52
2019-02-07T13:07:43.071Z,59.10
2019-02-07T13:10:09.560Z,59.96
2019-02-07T13:12:35.979Z,60.28
2019-02-07T13:15:01.691Z,59.63
2019-02-07T13:17:28.323Z,58.90
2019-02-07T13:19:40.765Z,59.16
2019-02-07T13:21:51.740Z,59.37
2019-02-07T13:24:19.502Z,59.33
2019-02-07T13:26:35.995Z,59.45
2019-02-07T13:28:46.359Z,58.77
2019-02-07T13:31:05.899Z,59.76
2019-02-07T13:33:30.393Z,59.48
2019-02-07T13:35:39.095Z,58.91
2019-02-07T13:37:49.150Z,59.42
2019-02-07T13:40:00.682Z,59.78
2019-02-07T13:42:27.171Z,59.06
2019-02-07T13:44:40.391Z,59.78
2019-02-07T13:46:51.671Z,59.96
2019-02-07T13:49:09.952Z,59.54
2019-02-07T13:51:35.729Z,59.61
2019-02-07T13:53:51.300Z,59.33
2019-02-07T13:56:17.111Z,59.85
2019-02-07T13:58:28.601Z,60.00
2019-02-07T14:00:37.213Z,59.37
2019-02-07T14:02:51.289Z,60.16
2019-02-07T14:05:11.968Z,59.89
2019-02-07T14:07:29.803Z,60.33
2019-02-07T14:09:48.241Z,60.56
2019-02-07T14:12:16.349Z,60.34
2019-02-07T14:14:27.441Z,60.46
2019-02-07T14:16:55.044Z,60.49
2019-02-07T14:19:15.284Z,60.49
2019-02-07T14:21:29.550Z,60.70
2019-02-07T14:23:55.111Z,60.70
2019-02-07T14:26:17.562Z,61.26
2019-02-07T14:28:27.438Z,61.43
2019-02-07T14:30:54.831Z,61.34
2019-02-07T14:33:22.583Z,60.98
2019-02-07T14:35:51.909Z,60.94
2019-02-07T14:38:08.471Z,60.96
2019-02-07T14:40:20.873Z,60.90
2019-02-07T14:42:50.144Z,61.08
2019-02-07T14:45:07.487Z,61.35
2019-02-07T14:47:14.664Z,61.47
2019-02-07T14:49:23.121Z,61.39
2019-02-07T14:51:36.381Z,61.40
2019-02-07T14:53:45.686Z,61.79
2019-02-07T14:55:53.744Z,61.42
2019-02-07T14:58:00.861Z,61.61
2019-02-07T15:00:18.209Z,61.62
2019-02-07T15:04:45.171Z,61.70
2019-02-07T15:06:52.318Z,62.01
2019-02-07T15:08:59.431Z,62.02
2019-02-07T15:11:08.661Z,61.90
2019-02-07T15:13:17.149Z,62.27
2019-02-07T15:15:24.238Z,62.52
2019-02-07T15:17:30.892Z,62.56
2019-02-07T15:19:39.825Z,62.79
2019-02-07T15:21:51.100Z,62.83
2019-02-07T15:23:58.150Z,62.54
2019-02-07T15:26:07.842Z,63.08
2019-02-07T15:28:16.019Z,62.88
2019-02-07T15:30:24.123Z,63.26
2019-02-07T15:32:30.944Z,63.15
2019-02-07T15:34:39.327Z,63.21
2019-02-07T15:36:46.300Z,63.63
2019-02-07T15:38:53.171Z,63.80
2019-02-07T15:41:00.767Z,64.10
2019-02-07T15:43:12.067Z,64.06
2019-02-07T15:45:19.128Z,63.91
2019-02-07T15:47:26.150Z,63.76
2019-02-07T15:49:34.847Z,63.88
2019-02-07T15:51:42.387Z,63.86
2019-02-07T15:53:50.934Z,63.97
2019-02-07T15:55:58.186Z,64.22
2019-02-07T15:58:05.537Z,64.23
2019-02-07T16:00:23.987Z,64.36
2019-02-07T16:02:30.646Z,64.62
2019-02-07T16:04:37.407Z,64.92
2019-02-07T16:06:44.327Z,65.06
2019-02-07T16:08:50.811Z,65.24
2019-02-07T16:10:57.967Z,65.27
2019-02-07T16:13:06.687Z,65.36
2019-02-07T16:15:15.186Z,65.60
2019-02-07T16:17:25.336Z,65.39
2019-02-07T16:19:32.867Z,65.38
2019-02-07T16:21:39.607Z,65.41
2019-02-07T16:23:47.907Z,65.60
2019-02-07T16:25:54.667Z,65.86
2019-02-07T16:28:02.892Z,65.88
2019-02-07T16:30:21.774Z,66.14
2019-02-07T16:32:31.605Z,66.21
2019-02-07T16:34:39.887Z,66.12
2019-02-07T16:36:48.906Z,66.19
2019-02-07T16:38:55.647Z,66.23
2019-02-07T16:41:02.511Z,66.39
2019-02-07T16:43:10.263Z,66.44
2019-02-07T16:45:26.168Z,66.50
2019-02-07T16:47:32.866Z,66.53
2019-02-07T16:49:44.774Z,66.64
2019-02-07T16:51:53.288Z,66.76
2019-02-07T16:54:01.707Z,66.59
2019-02-07T16:56:11.401Z,66.74
2019-02-07T16:58:28.270Z,66.85
2019-02-07T17:00:40.390Z,66.92
2019-02-07T17:02:47.727Z,66.78
2019-02-07T17:04:55.037Z,67.01
2019-02-07T17:07:01.807Z,66.99
2019-02-07T17:09:12.147Z,67.06
2019-02-07T17:11:24.687Z,66.96
2019-02-07T17:13:35.347Z,66.95
2019-02-07T17:15:42.346Z,67.11
2019-02-07T17:17:49.686Z,67.04
2019-02-07T17:19:56.947Z,67.26
2019-02-07T17:22:04.807Z,67.31
2019-02-07T17:24:12.328Z,67.45
2019-02-07T17:26:19.227Z,67.58
2019-02-07T17:28:26.514Z,67.62
2019-02-07T17:30:33.549Z,67.48
2019-02-07T17:32:41.569Z,67.53
2019-02-07T17:34:48.327Z,67.63
2019-02-07T17:36:55.366Z,67.75
2019-02-07T17:39:02.446Z,67.74
2019-02-07T17:41:10.887Z,67.80
2019-02-07T17:43:19.063Z,67.96
2019-02-07T17:45:33.527Z,67.99
2019-02-07T17:47:40.366Z,68.09
2019-02-07T17:49:47.207Z,68.07
2019-02-07T17:51:55.449Z,67.94
2019-02-07T17:54:02.488Z,67.93
2019-02-07T17:56:09.388Z,68.11
2019-02-07T17:58:16.967Z,68.17
2019-02-07T18:00:41.333Z,68.58
2019-02-07T18:02:48.350Z,68.63
2019-02-07T18:04:55.989Z,68.57
2019-02-07T18:07:04.873Z,68.65
2019-02-07T18:09:11.627Z,68.52
2019-02-07T18:11:19.127Z,68.75
2019-02-07T18:13:26.307Z,69.12
2019-02-07T18:15:33.585Z,69.23
2019-02-07T18:17:40.566Z,69.40
2019-02-07T18:19:48.847Z,69.63
2019-02-07T18:21:57.333Z,69.56
2019-02-07T18:24:04.527Z,69.43
2019-02-07T18:26:11.767Z,69.67
2019-02-07T18:28:18.546Z,69.59
2019-02-07T18:30:25.467Z,69.47
2019-02-07T18:32:32.208Z,69.51
2019-02-07T18:34:41.034Z,68.99
2019-02-07T18:36:48.994Z,69.19
2019-02-07T18:38:56.007Z,69.37
2019-02-07T18:41:06.258Z,69.23
2019-02-07T18:43:14.328Z,69.24
2019-02-07T18:45:22.686Z,69.02
2019-02-07T18:47:29.607Z,69.20
2019-02-07T18:49:38.441Z,68.79
2019-02-07T18:51:45.995Z,68.57
2019-02-07T18:53:52.887Z,68.56
2019-02-07T18:56:00.354Z,68.51
2019-02-07T18:58:07.857Z,68.16
2019-02-07T19:00:26.806Z,68.50
2019-02-07T19:05:19.487Z,68.18
2019-02-07T19:07:26.727Z,68.23
2019-02-07T19:09:33.648Z,68.01
2019-02-07T19:11:40.928Z,67.59
2019-02-07T19:13:48.334Z,67.73
2019-02-07T19:16:00.440Z,67.75
2019-02-07T19:18:08.107Z,67.05
2019-02-07T19:20:18.093Z,67.39
2019-02-07T19:22:24.704Z,67.58
2019-02-07T19:24:31.803Z,67.82
2019-02-07T19:26:40.732Z,67.77
2019-02-07T19:28:49.033Z,68.85
2019-02-07T19:30:57.774Z,68.12
2019-02-07T19:33:04.884Z,68.23
2019-02-07T19:35:12.030Z,68.59
2019-02-07T19:37:18.653Z,68.23
2019-02-07T19:39:25.494Z,68.79
2019-02-07T19:41:32.503Z,68.41
2019-02-07T19:43:41.123Z,69.42
2019-02-07T19:45:47.983Z,69.23
2019-02-07T19:47:56.043Z,69.05
2019-02-07T19:50:02.555Z,69.21
2019-02-07T19:52:09.780Z,69.46
2019-02-07T19:54:16.414Z,69.46
2019-02-07T19:56:23.724Z,69.53
2019-02-07T19:58:31.043Z,69.53
2019-02-07T20:00:39.526Z,69.63
2019-02-07T20:02:46.853Z,69.92
2019-02-07T20:04:54.243Z,70.08
2019-02-07T20:07:04.411Z,70.29
2019-02-07T20:09:20.664Z,70.02
2019-02-07T20:11:27.806Z,69.99
2019-02-07T20:13:34.231Z,70.30
2019-02-07T20:15:45.095Z,70.54
2019-02-07T20:17:52.104Z,70.78
2019-02-07T20:19:58.859Z,70.57
2019-02-07T20:22:06.044Z,70.67
2019-02-07T20:24:13.286Z,70.52
2019-02-07T20:26:21.683Z,70.62
2019-02-07T20:28:30.844Z,70.64
2019-02-07T20:30:43.629Z,70.27
2019-02-07T20:32:54.131Z,70.58
2019-02-07T20:35:02.005Z,70.64
2019-02-07T20:37:13.085Z,70.85
2019-02-07T20:39:20.203Z,71.11
2019-02-07T20:41:27.810Z,71.11
2019-02-07T20:43:34.483Z,71.34
2019-02-07T20:45:41.204Z,71.39
2019-02-07T20:47:48.248Z,71.58
2019-02-07T20:49:55.406Z,71.72
2019-02-07T20:52:02.883Z,71.89
2019-02-07T20:54:09.845Z,72.05
2019-02-07T20:56:17.284Z,72.19
2019-02-07T20:58:24.324Z,72.31
2019-02-07T21:00:39.934Z,72.34
2019-02-07T21:02:47.492Z,72.42
2019-02-07T21:04:54.404Z,72.42
2019-02-07T21:07:02.083Z,72.83
2019-02-07T21:09:10.491Z,72.97
2019-02-07T21:11:17.772Z,73.18
2019-02-07T21:13:25.484Z,73.35
2019-02-07T21:15:32.364Z,73.11
2019-02-07T21:17:39.807Z,72.96
2019-02-07T21:19:46.908Z,73.32
2019-02-07T21:21:54.050Z,73.20
2019-02-07T21:24:03.566Z,73.34
2019-02-07T21:26:10.044Z,73.08
2019-02-07T21:28:17.403Z,73.07
2019-02-07T21:30:28.363Z,73.46
2019-02-07T21:32:35.683Z,73.00
2019-02-07T21:34:43.571Z,72.98
2019-02-07T21:36:50.725Z,72.70
2019-02-07T21:38:58.244Z,72.51
2019-02-07T21:41:06.044Z,72.27
2019-02-07T21:43:13.004Z,72.46
2019-02-07T21:45:22.003Z,72.23
2019-02-07T21:47:29.605Z,72.31
2019-02-07T21:49:36.406Z,72.77
2019-02-07T21:51:43.686Z,72.93
2019-02-07T21:53:50.859Z,72.83
2019-02-07T21:55:57.964Z,73.55
2019-02-07T21:58:05.853Z,73.52
2019-02-07T22:00:23.012Z,73.85
2019-02-07T22:02:30.284Z,74.55
2019-02-07T22:04:37.485Z,74.96
2019-02-07T22:06:44.883Z,74.97
2019-02-07T22:08:51.926Z,75.04
2019-02-07T22:10:58.963Z,75.24
2019-02-07T22:13:06.807Z,75.84
2019-02-07T22:15:26.883Z,76.45
2019-02-07T22:17:34.404Z,77.13
2019-02-07T22:19:41.886Z,76.73
2019-02-07T22:21:49.124Z,77.48
2019-02-07T22:23:56.123Z,77.81
2019-02-07T22:26:03.117Z,78.61
2019-02-07T22:28:11.005Z,78.82
2019-02-07T22:30:22.110Z,79.70
2019-02-07T22:32:29.444Z,79.82
2019-02-07T22:34:36.764Z,80.14
2019-02-07T22:36:43.803Z,80.34
2019-02-07T22:38:51.204Z,81.09
2019-02-07T22:40:59.332Z,81.51
2019-02-07T22:43:07.006Z,81.75
2019-02-07T22:45:18.004Z,82.45
2019-02-07T22:47:26.205Z,82.74
2019-02-07T22:49:33.323Z,83.12
2019-02-07T22:51:40.204Z,83.75
2019-02-07T22:53:46.964Z,83.96
2019-02-07T22:55:53.863Z,84.13
2019-02-07T22:58:01.723Z,84.31
2019-02-07T23:00:37.205Z,84.77
2019-02-07T23:02:45.804Z,85.16
2019-02-07T23:04:53.003Z,85.73
2019-02-07T23:07:00.724Z,85.68
2019-02-07T23:09:11.527Z,86.01
2019-02-07T23:11:18.603Z,86.34
2019-02-07T23:13:26.724Z,86.24
2019-02-07T23:15:35.244Z,86.47
2019-02-07T23:17:42.764Z,86.71
2019-02-07T23:19:49.965Z,87.10
2019-02-07T23:21:56.849Z,87.35
2019-02-07T23:24:04.095Z,87.81
2019-02-07T23:26:10.844Z,87.62
2019-02-07T23:28:17.724Z,87.85
2019-02-07T23:30:25.124Z,87.66
2019-02-07T23:32:32.724Z,87.77
2019-02-07T23:34:40.884Z,87.99
2019-02-07T23:36:48.684Z,87.93
2019-02-07T23:38:56.044Z,87.94
2019-02-07T23:41:03.412Z,88.07
2019-02-07T23:43:11.083Z,88.27
2019-02-07T23:45:24.084Z,88.43
2019-02-07T23:47:30.844Z,88.47
2019-02-07T23:49:37.725Z,88.56
2019-02-07T23:51:44.804Z,88.44
2019-02-07T23:53:53.093Z,88.12
2019-02-07T23:56:01.884Z,88.29
2019-02-07T23:58:08.763Z,88.44
